Time;durP1;ratioP1;P1;durP2;ratioP2;P2;SDS_P1;SDS_P2;PMS_P1;PMS_P2;Temp;Humidity;BMP_temperature;BMP_pressure;BME280_temperature;BME280_humidity;BME280_pressure;Samples;Min_cycle;Max_cycle;Signal;HPM_P1;HPM_P2
2021/04/13 00:02:40;;;;;;;21.88;20.60;;;2.80;83.50;;;;;;5134570;27;20283;-77
2021/04/13 00:05:08;;;;;;;21.38;20.17;;;2.70;83.60;;;;;;5118613;27;20232;-77
2021/04/13 00:07:38;;;;;;;22.25;20.95;;;2.60;84.20;;;;;;5133895;27;20219;-76
2021/04/13 00:10:09;;;;;;;21.88;20.58;;;2.60;84.20;;;;;;5134229;27;20279;-76
2021/04/13 00:12:37;;;;;;;21.63;20.38;;;2.60;84.10;;;;;;5133520;27;20239;-76
2021/04/13 00:15:08;;;;;;;21.90;20.60;;;2.50;84.40;;;;;;5134172;27;20194;-74
2021/04/13 00:17:34;;;;;;;20.55;19.35;;;2.50;84.80;;;;;;5133418;27;20282;-74
2021/04/13 00:20:08;;;;;;;21.88;20.58;;;2.40;84.90;;;;;;5133846;27;20264;-74
2021/04/13 00:22:36;;;;;;;22.30;21.00;;;2.40;85.20;;;;;;5134274;27;20282;-75
2021/04/13 00:25:05;;;;;;;22.30;20.90;;;2.40;85.10;;;;;;5133969;27;20679;-75
2021/04/13 00:27:31;;;;;;;21.95;20.55;;;2.40;85.10;;;;;;5133383;27;20214;-75
2021/04/13 00:30:12;;;;;;;22.02;20.83;;;2.30;85.10;;;;;;5133688;27;20219;-75
2021/04/13 00:32:45;;;;;;;21.65;20.25;;;2.40;85.20;;;;;;5133889;27;20310;-74
2021/04/13 00:35:28;;;;;;;21.27;19.98;;;2.40;84.70;;;;;;5133778;27;20718;-75
2021/04/13 00:38:14;;;;;;;21.65;20.35;;;2.50;84.40;;;;;;5133668;27;20231;-76
2021/04/13 00:40:41;;;;;;;20.25;19.15;;;2.50;87.00;;;;;;5133683;27;20221;-75
2021/04/13 00:43:13;;;;;;;22.08;20.67;;;2.50;85.80;;;;;;5133684;27;20242;-75
2021/04/13 00:45:45;;;;;;;20.65;19.55;;;2.50;85.50;;;;;;5132986;27;20209;-75
2021/04/13 00:48:14;;;;;;;20.83;19.70;;;2.60;84.50;;;;;;5133725;27;20202;-75
2021/04/13 00:50:43;;;;;;;21.98;20.67;;;2.70;84.00;;;;;;5133489;27;20306;-75
2021/04/13 00:53:13;;;;;;;22.90;21.60;;;2.70;83.50;;;;;;5133521;27;20199;-75
2021/04/13 00:55:44;;;;;;;22.10;20.70;;;2.70;83.40;;;;;;5132947;27;20277;-75
2021/04/13 00:58:16;;;;;;;21.30;19.90;;;2.70;83.40;;;;;;5133582;27;20661;-75
2021/04/13 01:00:48;;;;;;;19.83;18.73;;;2.60;84.30;;;;;;5133469;27;20220;-75
2021/04/13 01:03:16;;;;;;;21.23;19.83;;;2.60;88.80;;;;;;5133430;27;20285;-75
2021/04/13 01:05:45;;;;;;;22.10;20.70;;;2.60;86.70;;;;;;5132681;27;20283;-76
2021/04/13 01:08:19;;;;;;;22.35;20.85;;;2.60;85.40;;;;;;5133389;27;20199;-75
2021/04/13 01:10:46;;;;;;;21.92;20.67;;;2.60;84.50;;;;;;5133367;27;20215;-75
2021/04/13 01:13:15;;;;;;;22.10;20.80;;;2.60;84.30;;;;;;5132630;27;20245;-75
2021/04/13 01:15:46;;;;;;;22.60;21.10;;;2.60;84.00;;;;;;5132609;27;20678;-75
2021/04/13 01:18:14;;;;;;;22.48;21.08;;;2.60;84.00;;;;;;5132944;27;20203;-75
2021/04/13 01:20:48;;;;;;;22.05;20.75;;;2.50;84.10;;;;;;5133126;28;20630;-75
2021/04/13 01:23:22;;;;;;;21.70;20.48;;;2.50;84.30;;;;;;5133466;28;20195;-76
2021/04/13 01:25:56;;;;;;;22.08;20.70;;;2.50;84.30;;;;;;5132889;27;20230;-77
2021/04/13 01:28:27;;;;;;;21.83;20.42;;;2.50;84.20;;;;;;5133046;28;20290;-77
2021/04/13 01:30:58;;;;;;;21.17;19.98;;;2.50;84.30;;;;;;5133179;28;20213;-77
2021/04/13 01:33:35;;;;;;;21.63;20.42;;;2.40;84.70;;;;;;5135443;27;20206;-77
2021/04/13 01:36:14;;;;;;;22.42;20.85;;;2.40;85.00;;;;;;5136951;27;20285;-77
2021/04/13 01:38:56;;;;;;;22.70;21.30;;;2.40;84.90;;;;;;5137179;27;20303;-77
2021/04/13 01:41:29;;;;;;;23.30;21.70;;;2.40;84.70;;;;;;5137204;27;20268;-77
2021/04/13 01:43:57;;;;;;;21.10;19.90;;;2.50;84.50;;;;;;5137181;27;20563;-76
2021/04/13 01:46:25;;;;;;;21.42;20.05;;;2.40;84.40;;;;;;5136475;27;20217;-77
2021/04/13 01:48:54;;;;;;;21.25;19.95;;;2.40;84.70;;;;;;5136912;27;20228;-77
2021/04/13 01:51:20;;;;;;;21.65;20.35;;;2.30;85.20;;;;;;5136969;27;20695;-77
2021/04/13 01:53:49;;;;;;;21.50;20.20;;;2.30;85.20;;;;;;5137023;27;20285;-77
2021/04/13 01:56:27;;;;;;;21.35;20.05;;;2.20;85.70;;;;;;5136261;27;20239;-77
2021/04/13 01:58:59;;;;;;;22.10;20.80;;;2.10;85.80;;;;;;5137013;27;20219;-76
2021/04/13 02:01:31;;;;;;;22.55;21.17;;;2.00;86.40;;;;;;5136707;27;20287;-78
2021/04/13 02:04:05;;;;;;;21.95;20.75;;;2.10;86.30;;;;;;5136876;27;20191;-76
2021/04/13 02:06:36;;;;;;;21.35;20.15;;;2.10;86.20;;;;;;5136091;27;20241;-77
2021/04/13 02:09:09;;;;;;;23.70;22.17;;;2.00;86.30;;;;;;5136794;27;20533;-77
2021/04/13 02:11:38;;;;;;;22.13;20.70;;;2.00;86.40;;;;;;5136566;27;20804;-77
2021/04/13 02:14:08;;;;;;;21.58;20.27;;;2.10;86.10;;;;;;5135971;27;20734;-77
2021/04/13 02:16:45;;;;;;;21.77;20.48;;;2.10;86.10;;;;;;5135975;27;20231;-77
2021/04/13 02:19:12;;;;;;;22.15;20.80;;;2.10;86.00;;;;;;5136389;27;20202;-76
2021/04/13 02:21:42;;;;;;;22.08;20.75;;;2.00;86.20;;;;;;5136607;27;20708;-76
2021/04/13 02:24:11;;;;;;;23.20;21.63;;;2.00;86.30;;;;;;5136358;27;20203;-76
2021/04/13 02:26:41;;;;;;;23.20;21.70;;;1.90;86.30;;;;;;5135664;27;20218;-77
2021/04/13 02:29:09;;;;;;;24.58;23.02;;;1.90;86.50;;;;;;5136603;27;20195;-77
2021/04/13 02:31:37;;;;;;;21.50;20.20;;;1.90;86.60;;;;;;5136606;27;20218;-77
2021/04/13 02:34:10;;;;;;;23.48;22.08;;;1.90;86.30;;;;;;5136570;27;20194;-77
2021/04/13 02:36:37;;;;;;;22.23;20.92;;;1.90;86.50;;;;;;5135602;27;20242;-78
2021/04/13 02:39:07;;;;;;;22.95;21.58;;;1.80;86.60;;;;;;5135975;27;20190;-77
2021/04/13 02:41:37;;;;;;;23.98;22.25;;;1.90;86.60;;;;;;5136097;27;20571;-77
2021/04/13 02:44:07;;;;;;;22.20;20.90;;;2.00;86.30;;;;;;5135946;27;20197;-77
2021/04/13 02:46:36;;;;;;;23.58;22.08;;;1.90;86.40;;;;;;5135284;27;20263;-77
2021/04/13 02:49:07;;;;;;;23.10;21.80;;;1.80;86.50;;;;;;5135958;27;20567;-77
2021/04/13 02:51:36;;;;;;;22.52;21.15;;;1.80;86.60;;;;;;5136122;27;20248;-77
2021/04/13 02:54:06;;;;;;;27.50;25.90;;;1.80;86.70;;;;;;5135745;27;20676;-77
2021/04/13 02:56:35;;;;;;;23.25;21.83;;;1.90;86.30;;;;;;5135197;27;20201;-77
2021/04/13 02:59:16;;;;;;;22.23;20.83;;;1.80;85.90;;;;;;5135741;27;20193;-77
2021/04/13 03:01:51;;;;;;;22.15;20.88;;;1.80;86.50;;;;;;5135764;27;20258;-77
2021/04/13 03:04:18;;;;;;;24.50;22.95;;;1.80;86.60;;;;;;5135844;27;20281;-76
2021/04/13 03:06:51;;;;;;;24.02;22.52;;;1.80;86.70;;;;;;5135126;27;20246;-76
2021/04/13 03:09:21;;;;;;;23.45;21.95;;;1.90;86.40;;;;;;5135611;27;20659;-77
2021/04/13 03:11:49;;;;;;;27.67;26.08;;;2.10;85.80;;;;;;5135223;27;20202;-78
2021/04/13 03:14:18;;;;;;;27.63;25.60;;;2.00;86.10;;;;;;5135213;27;20621;-77
2021/04/13 03:16:48;;;;;;;24.35;22.95;;;2.10;86.00;;;;;;5134809;27;20686;-76
2021/04/13 03:19:18;;;;;;;24.70;23.20;;;2.20;85.70;;;;;;5135037;27;20195;-77
2021/04/13 03:21:50;;;;;;;26.60;25.00;;;2.10;85.70;;;;;;5135381;27;20663;-77
2021/04/13 03:24:22;;;;;;;28.17;26.48;;;2.10;85.80;;;;;;5135453;27;20205;-77
2021/04/13 03:26:52;;;;;;;24.77;23.23;;;2.10;85.70;;;;;;5134528;27;20219;-77
2021/04/13 03:29:22;;;;;;;24.30;22.77;;;2.00;85.50;;;;;;5135352;27;20199;-77
2021/04/13 03:31:52;;;;;;;24.17;22.70;;;2.10;85.60;;;;;;5135247;27;20193;-77
2021/04/13 03:34:19;;;;;;;23.38;21.88;;;2.20;84.90;;;;;;5135235;27;20195;-76
2021/04/13 03:36:48;;;;;;;24.17;22.77;;;2.10;84.90;;;;;;5134447;27;20195;-77
2021/04/13 03:39:19;;;;;;;23.90;22.40;;;2.10;85.00;;;;;;5134891;27;20201;-78
2021/04/13 03:41:48;;;;;;;24.98;23.40;;;2.10;85.00;;;;;;5134875;27;20202;-77
2021/04/13 03:44:17;;;;;;;24.05;22.55;;;2.10;84.90;;;;;;5134912;27;20205;-77
2021/04/13 03:46:44;;;;;;;25.00;23.50;;;2.00;84.90;;;;;;5134270;27;20358;-76
2021/04/13 03:49:18;;;;;;;24.98;23.38;;;2.00;85.10;;;;;;5134856;27;20312;-77
2021/04/13 03:51:47;;;;;;;23.10;21.70;;;1.90;85.20;;;;;;5134677;27;20234;-77
2021/04/13 03:54:20;;;;;;;23.10;21.50;;;1.80;85.40;;;;;;5134731;27;20194;-77
2021/04/13 03:56:48;;;;;;;24.70;23.13;;;1.70;86.30;;;;;;5133661;27;20225;-77
2021/04/13 03:59:20;;;;;;;23.20;21.80;;;1.60;86.80;;;;;;5134383;27;20493;-77
2021/04/13 04:01:47;;;;;;;20.50;19.25;;;1.60;87.10;;;;;;5134487;27;20199;-77
2021/04/13 04:04:23;;;;;;;25.95;22.85;;;1.60;87.30;;;;;;5134423;27;20194;-77
2021/04/13 04:06:55;;;;;;;23.58;22.08;;;1.70;87.00;;;;;;5133795;27;20696;-77
2021/04/13 04:09:33;;;;;;;22.92;21.63;;;1.70;86.80;;;;;;5134183;27;20208;-76
2021/04/13 04:12:03;;;;;;;23.05;21.60;;;1.70;86.90;;;;;;5133886;27;20194;-77
2021/04/13 04:14:31;;;;;;;22.88;21.27;;;1.60;87.00;;;;;;5134224;27;20276;-77
2021/04/13 04:17:06;;;;;;;23.70;22.13;;;1.50;87.50;;;;;;5133617;27;20540;-77
2021/04/13 04:19:34;;;;;;;25.45;23.85;;;1.60;87.30;;;;;;5134101;27;20193;-77
2021/04/13 04:22:03;;;;;;;24.10;22.55;;;1.60;87.00;;;;;;5134231;27;20197;-77
2021/04/13 04:24:33;;;;;;;24.45;22.95;;;1.50;87.30;;;;;;5134096;27;20194;-76
2021/04/13 04:27:03;;;;;;;24.05;22.65;;;1.50;87.60;;;;;;5133315;27;20221;-77
2021/04/13 04:29:40;;;;;;;25.30;23.75;;;1.50;88.00;;;;;;5133990;27;20198;-77
2021/04/13 04:32:20;;;;;;;23.98;22.52;;;1.50;87.90;;;;;;5134005;27;20198;-76
2021/04/13 04:34:57;;;;;;;23.80;22.25;;;1.60;87.70;;;;;;5133848;27;20193;-77
2021/04/13 04:37:31;;;;;;;26.25;24.52;;;1.60;87.60;;;;;;5133261;27;20239;-77
2021/04/13 04:40:12;;;;;;;23.95;22.42;;;1.60;87.30;;;;;;5133859;27;20249;-77
2021/04/13 04:42:46;;;;;;;25.15;23.55;;;1.60;87.30;;;;;;5133937;27;20285;-76
2021/04/13 04:45:14;;;;;;;23.45;21.95;;;1.60;87.30;;;;;;5133787;27;20288;-76
2021/04/13 04:47:42;;;;;;;26.27;24.67;;;1.50;87.60;;;;;;5132936;27;20305;-76
2021/04/13 04:50:12;;;;;;;26.20;24.50;;;1.50;87.60;;;;;;5133612;27;20213;-76
2021/04/13 04:52:38;;;;;;;23.67;22.10;;;1.50;87.90;;;;;;5133761;27;20657;-77
2021/04/13 04:55:06;;;;;;;25.60;23.95;;;1.50;87.60;;;;;;5133503;27;20194;-76
2021/04/13 04:57:33;;;;;;;24.35;22.75;;;1.50;87.50;;;;;;5133093;27;20669;-77
2021/04/13 04:59:59;;;;;;;23.27;21.88;;;1.60;87.30;;;;;;5133270;27;20218;-76
2021/04/13 05:02:26;;;;;;;26.08;24.27;;;1.70;86.70;;;;;;5133285;27;20226;-76
2021/04/13 05:04:52;;;;;;;24.00;22.50;;;1.70;86.20;;;;;;5133303;27;20282;-76
2021/04/13 05:07:19;;;;;;;24.08;22.50;;;1.70;86.40;;;;;;5131840;27;20218;-76
2021/04/13 05:09:46;;;;;;;23.60;22.05;;;1.70;86.80;;;;;;5133405;27;20301;-76
2021/04/13 05:12:13;;;;;;;23.50;21.83;;;1.70;87.50;;;;;;5132823;27;20694;-76
2021/04/13 05:14:40;;;;;;;23.05;21.55;;;1.70;87.10;;;;;;5133560;27;20253;-76
2021/04/13 05:17:06;;;;;;;25.00;23.40;;;1.70;86.80;;;;;;5132564;27;20722;-76
2021/04/13 05:19:33;;;;;;;24.67;22.73;;;1.70;86.90;;;;;;5132828;27;20217;-76
2021/04/13 05:21:59;;;;;;;23.70;22.10;;;1.70;86.80;;;;;;5133131;27;20266;-77
2021/04/13 05:24:26;;;;;;;24.10;22.42;;;1.80;86.70;;;;;;5133425;27;20615;-76
2021/04/13 05:26:53;;;;;;;24.58;22.95;;;1.80;86.70;;;;;;5132710;28;20702;-77
2021/04/13 05:29:19;;;;;;;24.70;23.15;;;2.00;86.30;;;;;;5133102;27;20283;-76
2021/04/13 05:31:46;;;;;;;26.15;24.30;;;2.10;86.00;;;;;;5133140;27;20656;-76
2021/04/13 05:34:13;;;;;;;26.00;24.30;;;2.20;85.80;;;;;;5133092;28;20731;-77
2021/04/13 05:36:43;;;;;;;26.65;24.60;;;2.40;85.00;;;;;;5132612;27;20195;-77
2021/04/13 05:39:10;;;;;;;25.15;23.35;;;2.50;84.30;;;;;;5133108;28;20191;-77
2021/04/13 05:41:37;;;;;;;26.92;25.13;;;2.60;83.50;;;;;;5132961;28;20297;-76
2021/04/13 05:44:05;;;;;;;26.67;25.08;;;2.50;83.40;;;;;;5133057;28;20297;-76
2021/04/13 05:46:33;;;;;;;26.23;24.33;;;2.60;83.60;;;;;;5132362;28;20301;-77
2021/04/13 05:49:00;;;;;;;28.20;26.50;;;2.70;83.60;;;;;;5132938;28;20200;-76
2021/04/13 05:51:27;;;;;;;27.65;25.65;;;2.70;83.80;;;;;;5133115;27;20215;-77
2021/04/13 05:53:53;;;;;;;25.60;23.95;;;2.80;83.70;;;;;;5132916;27;20730;-77
2021/04/13 05:56:25;;;;;;;27.08;25.27;;;2.90;83.50;;;;;;5132301;28;20291;-76
2021/04/13 05:58:52;;;;;;;26.42;24.65;;;3.10;82.60;;;;;;5133019;27;20200;-76
2021/04/13 06:01:20;;;;;;;27.05;25.05;;;3.20;81.40;;;;;;5132771;28;20310;-78
2021/04/13 06:03:47;;;;;;;26.30;24.55;;;3.40;80.80;;;;;;5134494;27;20610;-76
2021/04/13 06:06:15;;;;;;;26.98;25.27;;;3.40;80.70;;;;;;5132264;28;20192;-77
2021/04/13 06:08:41;;;;;;;28.10;26.05;;;3.50;80.50;;;;;;5132696;28;20201;-76
2021/04/13 06:11:10;;;;;;;28.38;26.48;;;3.50;80.30;;;;;;5132695;28;20304;-77
2021/04/13 06:13:36;;;;;;;29.10;27.05;;;3.60;80.40;;;;;;5131986;27;20205;-76
2021/04/13 06:16:07;;;;;;;29.75;27.70;;;3.80;79.50;;;;;;5132050;28;20281;-76
2021/04/13 06:18:34;;;;;;;30.25;27.77;;;4.10;78.70;;;;;;5133075;27;20280;-76
2021/04/13 06:21:00;;;;;;;30.98;28.85;;;4.20;77.80;;;;;;5136508;27;20210;-77
2021/04/13 06:23:27;;;;;;;31.15;28.50;;;4.30;77.10;;;;;;5136692;27;20379;-76
2021/04/13 06:25:53;;;;;;;30.20;28.30;;;4.30;76.50;;;;;;5135925;27;20285;-77
2021/04/13 06:28:19;;;;;;;31.30;29.08;;;4.60;76.30;;;;;;5136207;27;20209;-76
2021/04/13 06:30:46;;;;;;;29.45;27.65;;;4.70;75.30;;;;;;5136213;27;20563;-77
2021/04/13 06:33:13;;;;;;;29.10;27.10;;;4.90;74.90;;;;;;5136409;27;20727;-77
2021/04/13 06:35:42;;;;;;;34.13;31.58;;;5.00;73.90;;;;;;5135776;27;20198;-76
2021/04/13 06:38:19;;;;;;;32.78;30.63;;;5.20;71.80;;;;;;5136311;27;20190;-76
2021/04/13 06:41:23;;;;;;;31.73;29.77;;;5.30;70.60;;;;;;5136109;27;20222;-77
2021/04/13 06:44:03;;;;;;;31.25;29.25;;;5.40;69.90;;;;;;5136120;27;20197;-76
2021/04/13 06:46:39;;;;;;;33.45;31.17;;;5.40;69.80;;;;;;5135630;27;20213;-77
2021/04/13 06:49:23;;;;;;;37.17;34.53;;;5.40;69.20;;;;;;5136054;27;21012;-77
2021/04/13 06:52:08;;;;;;;33.05;31.05;;;5.60;70.00;;;;;;5136422;27;20574;-77
2021/04/13 06:54:43;;;;;;;31.05;29.05;;;5.70;69.20;;;;;;5135916;27;20225;-77
2021/04/13 06:57:42;;;;;;;31.35;29.20;;;5.80;69.00;;;;;;5135218;27;20189;-77
2021/04/13 07:00:18;;;;;;;32.15;29.92;;;5.70;68.10;;;;;;5135778;27;20749;-77
2021/04/13 07:02:57;;;;;;;31.95;29.75;;;5.70;68.30;;;;;;5135519;27;20189;-77
2021/04/13 07:05:31;;;;;;;32.42;30.13;;;5.80;67.80;;;;;;5135348;27;20201;-77
2021/04/13 07:08:04;;;;;;;34.00;31.63;;;5.90;68.20;;;;;;5135509;27;20316;-77
2021/04/13 07:10:34;;;;;;;34.10;31.83;;;5.80;69.20;;;;;;5135594;27;20269;-77
2021/04/13 07:13:06;;;;;;;32.28;29.80;;;5.80;67.90;;;;;;5134888;27;20206;-77
2021/04/13 07:15:41;;;;;;;34.42;32.22;;;5.70;68.80;;;;;;5134951;27;20204;-77
2021/04/13 07:18:12;;;;;;;33.35;31.10;;;5.60;68.70;;;;;;5135040;27;20224;-77
2021/04/13 07:20:45;;;;;;;35.03;32.80;;;5.60;69.40;;;;;;5135355;27;20651;-77
2021/04/13 07:23:16;;;;;;;34.22;31.63;;;5.80;68.70;;;;;;5135306;27;20194;-77
2021/04/13 07:25:47;;;;;;;35.72;33.03;;;6.00;68.10;;;;;;5134836;27;20200;-76
2021/04/13 07:28:20;;;;;;;33.72;31.30;;;6.20;67.10;;;;;;5135481;27;20217;-77
2021/04/13 07:30:50;;;;;;;33.58;31.38;;;6.30;66.60;;;;;;5134911;27;20564;-77
2021/04/13 07:33:19;;;;;;;35.38;33.08;;;6.40;66.90;;;;;;5138039;27;20198;-78
2021/04/13 07:35:49;;;;;;;34.22;32.00;;;6.60;66.40;;;;;;5139985;27;20206;-77
2021/04/13 07:38:20;;;;;;;32.58;30.45;;;6.70;65.70;;;;;;5139487;27;20233;-77
2021/04/13 07:40:49;;;;;;;35.55;32.97;;;6.50;66.10;;;;;;5138007;27;20223;-77
2021/04/13 07:43:20;;;;;;;35.90;33.10;;;6.40;67.30;;;;;;5136464;27;20209;-77
2021/04/13 07:45:57;;;;;;;36.53;34.03;;;6.20;68.30;;;;;;5134517;27;20285;-77
2021/04/13 07:48:35;;;;;;;35.20;32.97;;;6.00;69.10;;;;;;5135016;27;20305;-77
2021/04/13 07:51:19;;;;;;;36.30;33.70;;;6.00;70.10;;;;;;5134642;27;20249;-77
2021/04/13 07:54:04;;;;;;;38.35;35.60;;;6.20;69.70;;;;;;5134822;27;20655;-77
2021/04/13 07:56:40;;;;;;;35.70;33.40;;;6.30;69.90;;;;;;5134168;27;20204;-77
2021/04/13 07:59:14;;;;;;;35.20;32.90;;;6.10;70.20;;;;;;5134953;27;20190;-77
2021/04/13 08:01:40;;;;;;;35.47;33.10;;;6.10;71.50;;;;;;5134594;27;20225;-77
2021/04/13 08:04:07;;;;;;;34.72;32.35;;;6.20;70.00;;;;;;5134330;27;20247;-77
2021/04/13 08:06:52;;;;;;;39.97;37.28;;;6.20;69.90;;;;;;5133817;27;20305;-77
2021/04/13 08:09:37;;;;;;;35.85;33.33;;;6.10;69.80;;;;;;5134373;27;20205;-77
2021/04/13 08:12:12;;;;;;;34.70;32.20;;;6.10;69.60;;;;;;5133890;27;20198;-77
2021/04/13 08:14:40;;;;;;;36.65;34.05;;;5.90;70.20;;;;;;5134197;27;20209;-78
2021/04/13 08:17:13;;;;;;;35.42;32.97;;;5.90;70.60;;;;;;5133514;27;20191;-77
2021/04/13 08:19:42;;;;;;;36.55;34.05;;;5.90;70.10;;;;;;5134044;27;20274;-77
2021/04/13 08:22:13;;;;;;;34.03;31.73;;;5.90;70.50;;;;;;5134219;27;20208;-77
2021/04/13 08:24:42;;;;;;;38.25;35.70;;;6.00;70.10;;;;;;5134075;27;20202;-77
2021/04/13 08:27:41;;;;;;;35.78;33.05;;;5.80;70.70;;;;;;5133294;27;20763;-77
2021/04/13 08:30:34;;;;;;;33.00;30.48;;;5.70;70.70;;;;;;5133879;27;20371;-77
2021/04/13 08:33:09;;;;;;;38.45;36.15;;;5.70;69.70;;;;;;5133792;27;20205;-77
2021/04/13 08:35:40;;;;;;;35.47;32.97;;;5.90;69.70;;;;;;5133526;27;20606;-78
2021/04/13 08:38:18;;;;;;;33.90;31.60;;;6.10;69.00;;;;;;5134056;27;20274;-78
2021/04/13 08:41:01;;;;;;;34.00;31.38;;;6.20;69.60;;;;;;5133827;27;20738;-77
2021/04/13 08:43:37;;;;;;;33.80;31.40;;;6.30;67.00;;;;;;5133513;27;20198;-77
2021/04/13 08:46:22;;;;;;;33.78;31.15;;;6.30;66.60;;;;;;5132984;27;20243;-75
2021/04/13 08:48:55;;;;;;;34.80;32.17;;;6.40;65.70;;;;;;5133541;27;20608;-75
2021/04/13 08:51:33;;;;;;;33.90;31.55;;;6.30;66.00;;;;;;5133400;27;20825;-74
2021/04/13 08:54:24;;;;;;;34.22;31.92;;;6.30;65.70;;;;;;5133682;27;20279;-76
2021/04/13 08:56:57;;;;;;;38.10;35.58;;;6.30;66.30;;;;;;5133274;27;20194;-76
2021/04/13 08:59:37;;;;;;;34.70;32.17;;;6.60;71.80;;;;;;5133588;27;20196;-76
2021/04/13 09:02:13;;;;;;;37.42;35.10;;;7.20;67.60;;;;;;5133305;27;20283;-76
2021/04/13 09:04:39;;;;;;;37.53;35.00;;;7.50;67.70;;;;;;5133197;27;20279;-77
2021/04/13 09:07:10;;;;;;;36.03;33.60;;;7.70;67.00;;;;;;5132834;27;20231;-76
2021/04/13 09:09:42;;;;;;;35.95;33.35;;;8.10;63.80;;;;;;5133381;27;20253;-76
2021/04/13 09:12:22;;;;;;;34.40;31.90;;;8.20;62.00;;;;;;5132973;27;20284;-75
2021/04/13 09:14:53;;;;;;;32.55;30.30;;;8.20;60.80;;;;;;5133277;27;20650;-76
2021/04/13 09:17:30;;;;;;;33.08;30.98;;;8.30;58.50;;;;;;5132482;27;20249;-76
2021/04/13 09:20:10;;;;;;;36.85;34.55;;;8.60;56.80;;;;;;5133337;27;20216;-76
2021/04/13 09:22:46;;;;;;;31.02;29.13;;;8.50;59.00;;;;;;5133495;28;20194;-76
2021/04/13 09:25:24;;;;;;;36.63;34.03;;;8.60;57.70;;;;;;5132998;28;20198;-76
2021/04/13 09:27:59;;;;;;;34.90;32.40;;;8.70;58.50;;;;;;5133200;28;20213;-76
2021/04/13 09:30:33;;;;;;;34.67;32.35;;;8.70;57.00;;;;;;5133619;28;20228;-75
2021/04/13 09:33:14;;;;;;;37.03;34.63;;;8.40;57.90;;;;;;5133238;28;20198;-76
2021/04/13 09:36:11;;;;;;;32.58;30.55;;;8.30;58.00;;;;;;5132469;28;20204;-76
2021/04/13 09:39:16;;;;;;;33.50;31.20;;;8.00;57.10;;;;;;5133225;28;20189;-76
2021/04/13 09:42:39;;;;;;;33.63;31.33;;;7.20;57.80;;;;;;5109433;27;20204;-76
2021/04/13 09:45:25;;;;;;;32.47;30.38;;;6.90;58.40;;;;;;5069506;28;20285;-77
2021/04/13 09:48:28;;;;;;;32.83;30.75;;;7.00;57.30;;;;;;5071089;28;20760;-76
2021/04/13 09:51:10;;;;;;;33.03;30.63;;;7.20;57.50;;;;;;5118331;27;20247;-76
2021/04/13 09:54:09;;;;;;;34.00;31.80;;;7.20;55.60;;;;;;5133765;27;20660;-76
2021/04/13 09:57:13;;;;;;;31.85;29.85;;;7.20;55.70;;;;;;5136510;27;20233;-76
2021/04/13 09:59:55;;;;;;;31.73;29.55;;;7.30;55.60;;;;;;5136959;27;20250;-76
2021/04/13 10:02:42;;;;;;;29.85;28.05;;;7.10;53.90;;;;;;5136897;27;20200;-75
2021/04/13 10:05:13;;;;;;;32.35;30.15;;;7.50;55.40;;;;;;5136601;27;20190;-76
2021/04/13 10:07:48;;;;;;;33.20;31.00;;;7.90;53.60;;;;;;5136406;27;20260;-76
2021/04/13 10:10:22;;;;;;;31.38;29.27;;;7.90;54.00;;;;;;5136637;27;20224;-76
2021/04/13 10:13:24;;;;;;;31.52;29.52;;;7.90;53.30;;;;;;5136257;27;20204;-76
2021/04/13 10:16:04;;;;;;;32.90;30.80;;;8.20;52.20;;;;;;5136233;27;20201;-76
2021/04/13 10:19:00;;;;;;;30.67;28.60;;;8.60;50.90;;;;;;5136681;27;20342;-76
2021/04/13 10:22:11;;;;;;;30.40;28.50;;;8.70;51.90;;;;;;5136515;27;20249;-76
2021/04/13 10:25:17;;;;;;;31.90;29.90;;;9.10;51.00;;;;;;5136612;27;20284;-76
2021/04/13 10:28:19;;;;;;;31.23;29.25;;;8.90;52.40;;;;;;5129213;27;20225;-76
2021/04/13 10:31:36;;;;;;;31.75;29.23;;;8.60;52.70;;;;;;5133197;27;20746;-77
2021/04/13 10:34:40;;;;;;;31.20;29.20;;;8.30;52.10;;;;;;5052773;28;20705;-77
2021/04/13 10:37:37;;;;;;;32.50;30.35;;;7.90;52.40;;;;;;5135528;27;20222;-76
2021/04/13 10:40:29;;;;;;;32.72;30.55;;;7.80;53.20;;;;;;5136161;27;20220;-76
2021/04/13 10:43:26;;;;;;;31.45;29.40;;;7.60;55.00;;;;;;5136167;27;20294;-76
2021/04/13 10:46:07;;;;;;;34.40;31.95;;;7.80;55.00;;;;;;5135567;27;20194;-76
2021/04/13 10:48:58;;;;;;;30.40;28.52;;;8.10;54.60;;;;;;5135971;27;20551;-76
2021/04/13 10:52:10;;;;;;;28.98;27.27;;;8.40;51.60;;;;;;5136049;27;20218;-76
2021/04/13 10:55:03;;;;;;;29.33;27.52;;;8.50;48.90;;;;;;5098018;27;20206;-76
2021/04/13 10:58:12;;;;;;;29.45;27.65;;;8.50;47.00;;;;;;5135776;27;20206;-76
2021/04/13 11:00:50;;;;;;;29.73;27.83;;;8.40;47.40;;;;;;5135884;27;20235;-76
2021/04/13 11:03:54;;;;;;;29.77;27.90;;;8.20;49.70;;;;;;5135871;27;20285;-77
2021/04/13 11:06:56;;;;;;;31.10;29.00;;;7.90;50.10;;;;;;5135062;27;20564;-76
2021/04/13 11:10:07;;;;;;;29.85;28.15;;;7.90;51.70;;;;;;5124857;27;20206;-77
2021/04/13 11:12:59;;;;;;;30.02;27.95;;;7.80;51.70;;;;;;5097919;27;20200;-76
2021/04/13 11:16:01;;;;;;;28.92;26.92;;;8.10;49.00;;;;;;5135504;27;20689;-76
2021/04/13 11:19:04;;;;;;;29.70;27.70;;;8.40;48.90;;;;;;5121314;27;20186;-75
2021/04/13 11:22:09;;;;;;;30.30;28.50;;;8.50;49.70;;;;;;5135344;27;20217;-76
2021/04/13 11:24:40;;;;;;;32.35;30.25;;;8.80;48.90;;;;;;5135738;27;20204;-76
2021/04/13 11:27:42;;;;;;;30.67;28.85;;;9.10;47.60;;;;;;5135380;27;20218;-77
2021/04/13 11:30:44;;;;;;;28.60;26.80;;;9.30;44.80;;;;;;5135164;27;20221;-76
2021/04/13 11:33:53;;;;;;;28.33;26.70;;;9.20;43.40;;;;;;5135270;27;20285;-76
2021/04/13 11:36:35;;;;;;;28.70;26.90;;;9.00;43.60;;;;;;5134385;27;20238;-76
2021/04/13 11:39:05;;;;;;;29.00;27.30;;;9.10;44.30;;;;;;5135184;27;20194;-76
2021/04/13 11:42:05;;;;;;;29.60;27.70;;;9.10;44.40;;;;;;5135158;27;20217;-76
2021/04/13 11:44:36;;;;;;;29.83;27.80;;;9.50;43.20;;;;;;5122252;27;20277;-77
2021/04/13 11:47:10;;;;;;;31.00;29.10;;;9.70;43.30;;;;;;5134705;27;20296;-76
2021/04/13 11:49:44;;;;;;;29.60;27.80;;;9.90;43.40;;;;;;5135002;27;20214;-76
2021/04/13 11:52:22;;;;;;;28.52;26.83;;;10.10;44.00;;;;;;5134867;27;20209;-75
2021/04/13 11:54:52;;;;;;;31.85;29.85;;;10.40;43.30;;;;;;5134659;27;20247;-76
2021/04/13 11:57:22;;;;;;;29.08;27.27;;;10.60;43.00;;;;;;5134200;27;20703;-77
2021/04/13 12:00:26;;;;;;;31.70;29.83;;;10.50;42.40;;;;;;5134464;27;20260;-76
2021/04/13 12:03:09;;;;;;;31.25;29.27;;;10.60;41.80;;;;;;5134980;27;20194;-76
2021/04/13 12:05:45;;;;;;;30.00;28.13;;;10.50;44.00;;;;;;5133846;27;20281;-76
2021/04/13 12:08:47;;;;;;;29.52;27.40;;;9.80;46.30;;;;;;5134377;27;20270;-77
2021/04/13 12:11:16;;;;;;;29.25;27.45;;;9.60;46.60;;;;;;5134378;27;20694;-76
2021/04/13 12:13:46;;;;;;;29.58;27.77;;;9.20;48.50;;;;;;5133631;27;20237;-76
2021/04/13 12:16:16;;;;;;;30.35;28.45;;;9.00;49.40;;;;;;5133123;27;20253;-77
2021/04/13 12:19:09;;;;;;;30.13;28.23;;;9.00;49.70;;;;;;5134150;27;20272;-76
2021/04/13 12:21:39;;;;;;;30.40;28.50;;;9.10;50.80;;;;;;5134308;27;20210;-76
2021/04/13 12:24:34;;;;;;;29.40;27.60;;;9.20;49.80;;;;;;5134118;27;20289;-76
2021/04/13 12:27:39;;;;;;;30.05;27.95;;;9.30;48.00;;;;;;5116205;27;20324;-76
2021/04/13 12:30:48;;;;;;;30.83;28.90;;;9.10;49.20;;;;;;5134435;27;20308;-76
2021/04/13 12:33:47;;;;;;;28.73;26.90;;;9.20;47.30;;;;;;5134115;27;20214;-75
2021/04/13 12:36:57;;;;;;;29.33;27.63;;;9.30;48.20;;;;;;5133559;27;20611;-76
2021/04/13 12:39:44;;;;;;;29.13;27.42;;;9.40;44.80;;;;;;5133882;27;20281;-76
2021/04/13 12:42:39;;;;;;;28.55;26.75;;;9.40;45.00;;;;;;5134078;27;20562;-76
2021/04/13 12:45:39;;;;;;;28.80;27.10;;;9.50;45.10;;;;;;5133752;27;20292;-76
2021/04/13 12:48:29;;;;;;;29.17;27.30;;;9.50;45.80;;;;;;5133656;27;20301;-76
2021/04/13 12:51:33;;;;;;;27.23;25.63;;;9.60;46.50;;;;;;5133798;27;20224;-76
2021/04/13 12:54:15;;;;;;;27.02;25.42;;;9.80;43.60;;;;;;5113344;27;20292;-77
2021/04/13 12:56:49;;;;;;;28.58;26.77;;;10.00;40.60;;;;;;5133822;27;20266;-76
2021/04/13 12:59:21;;;;;;;27.30;25.80;;;9.70;41.90;;;;;;5133543;27;20346;-76
2021/04/13 13:01:47;;;;;;;26.95;25.45;;;9.70;42.50;;;;;;5133659;27;20190;-76
2021/04/13 13:04:16;;;;;;;26.60;25.02;;;10.00;40.80;;;;;;5133545;27;20205;-77
2021/04/13 13:06:47;;;;;;;26.83;25.33;;;10.00;39.50;;;;;;5132944;27;20225;-76
2021/04/13 13:09:24;;;;;;;27.25;25.75;;;10.20;39.40;;;;;;5133523;27;20612;-77
2021/04/13 13:11:59;;;;;;;27.60;25.90;;;10.40;39.90;;;;;;5133660;27;20195;-77
2021/04/13 13:14:27;;;;;;;28.55;26.95;;;10.20;40.70;;;;;;5132960;27;20710;-77
2021/04/13 13:16:55;;;;;;;31.48;29.67;;;10.10;41.10;;;;;;5132796;27;20202;-77
2021/04/13 13:19:29;;;;;;;27.70;26.20;;;9.80;42.60;;;;;;5132934;27;20643;-77
2021/04/13 13:21:57;;;;;;;28.83;27.23;;;9.70;44.80;;;;;;5133175;27;20212;-78
2021/04/13 13:24:27;;;;;;;28.75;26.88;;;9.20;48.70;;;;;;5133116;27;20578;-77